Glyn-neath, United Kingdom
Current Conditions -  °F | °C
As of 1:50 PM on Monday 20 Oct 2014 (Local Time) from EGDX Reporting Station
Rain Showers Rain Showers  
Wind Chill: 57°   Ceiling: 3200
Heat Index: 57°   Visibility: 4mi
Dew Point: 52°   Wind: 20mph
Humidity: 82%   Direction: 260°W
Pressure: 29.97"   Gusts: NA
Location:  51.75°N, 3.62°W
Report Text: EGDX 201250Z 26017KT 7000 SHRA SCT020 BKN032 14/11 Q1015 WHT
Loading
Personal Weather Stations






























Interactive Weather Map
Tropical Storm Tracking
New forecast layout! Learn more

10-Day Weather Forecast

Advertisements
Track Severe Weather on mobile